Time;durP1;ratioP1;P1;durP2;ratioP2;P2;SDS_P1;SDS_P2;PMS_P1;PMS_P2;Temp;Humidity;BMP_temperature;BMP_pressure;BME280_temperature;BME280_humidity;BME280_pressure;Samples;Min_cycle;Max_cycle;Signal;HPM_P1;HPM_P2
2022/12/28 00:02:14;;;;;;;22.52;20.40;;;10.50;99.90;;;;;;4934710;28;20043;-87
2022/12/28 00:04:40;;;;;;;24.77;22.70;;;10.50;99.90;;;;;;4933927;29;20365;-88
2022/12/28 00:07:06;;;;;;;23.30;21.65;;;10.50;99.90;;;;;;4949313;29;20043;-88
2022/12/28 00:09:32;;;;;;;23.55;21.52;;;10.50;99.90;;;;;;4920004;29;20374;-89
2022/12/28 00:11:58;;;;;;;25.05;22.90;;;10.50;99.90;;;;;;4923697;29;20047;-88
2022/12/28 00:14:24;;;;;;;24.88;23.00;;;10.50;99.90;;;;;;4930932;29;20103;-89
2022/12/28 00:16:50;;;;;;;24.67;22.38;;;10.50;99.90;;;;;;4926971;28;20044;-89
2022/12/28 00:19:16;;;;;;;24.05;22.13;;;10.50;99.90;;;;;;4926480;29;20031;-88
2022/12/28 00:21:43;;;;;;;22.70;20.95;;;10.40;99.90;;;;;;4927832;29;20056;-88
2022/12/28 00:24:18;;;;;;;23.85;22.10;;;10.50;99.90;;;;;;4918397;29;20040;-88
2022/12/28 00:26:44;;;;;;;22.58;20.73;;;10.60;99.90;;;;;;4923559;29;20032;-89
2022/12/28 00:29:10;;;;;;;22.48;20.50;;;10.50;99.90;;;;;;4932815;29;20032;-88
2022/12/28 00:31:36;;;;;;;23.98;21.98;;;10.50;99.90;;;;;;4933195;28;20048;-89
2022/12/28 00:34:03;;;;;;;24.67;22.60;;;10.50;99.90;;;;;;4930730;29;20051;-88
2022/12/28 00:36:30;;;;;;;24.60;22.70;;;10.50;99.90;;;;;;4937833;29;20043;-88
2022/12/28 00:38:56;;;;;;;25.65;23.63;;;10.50;99.90;;;;;;4914993;29;20095;-88
2022/12/28 00:41:22;;;;;;;23.88;21.63;;;10.50;99.90;;;;;;4916295;29;20024;-88
2022/12/28 00:43:48;;;;;;;20.50;18.52;;;10.40;99.90;;;;;;4917731;29;20062;-88
2022/12/28 00:46:15;;;;;;;21.85;20.55;;;10.40;99.90;;;;;;4927617;29;20500;-88
2022/12/28 00:48:41;;;;;;;22.50;20.45;;;10.40;99.90;;;;;;4933164;29;20032;-88
2022/12/28 00:51:10;;;;;;;21.92;20.15;;;10.30;99.90;;;;;;4948982;29;20035;-88
2022/12/28 00:53:36;;;;;;;23.05;21.08;;;10.30;99.90;;;;;;4918025;29;20047;-88
2022/12/28 00:56:15;;;;;;;22.10;20.45;;;10.40;99.90;;;;;;4934164;29;20485;-88
2022/12/28 00:58:41;;;;;;;21.00;19.27;;;10.40;99.90;;;;;;4924313;29;20028;-88
2022/12/28 01:01:13;;;;;;;20.88;18.95;;;10.40;99.90;;;;;;4932170;29;20043;-88
2022/12/28 01:03:39;;;;;;;20.70;18.95;;;10.40;99.90;;;;;;4920173;29;20028;-89
2022/12/28 01:06:06;;;;;;;21.38;19.73;;;10.40;99.90;;;;;;4923414;29;20032;-88
2022/12/28 01:08:34;;;;;;;21.42;19.33;;;10.50;99.90;;;;;;4934716;29;20031;-88
2022/12/28 01:11:04;;;;;;;21.73;20.00;;;10.40;99.90;;;;;;4939442;29;20436;-88
2022/12/28 01:13:31;;;;;;;19.33;17.80;;;10.40;99.90;;;;;;4939281;29;20056;-88
2022/12/28 01:15:57;;;;;;;21.05;19.25;;;10.50;99.90;;;;;;4937764;28;20039;-89
2022/12/28 01:18:23;;;;;;;19.60;17.90;;;10.50;99.90;;;;;;4941558;29;20028;-88
2022/12/28 01:20:49;;;;;;;19.83;18.15;;;10.50;99.90;;;;;;4935984;28;20037;-88
2022/12/28 01:23:15;;;;;;;22.17;20.02;;;10.40;99.90;;;;;;4918842;29;20040;-89
2022/12/28 01:25:41;;;;;;;20.08;18.40;;;10.30;99.90;;;;;;4910254;29;20042;-87
2022/12/28 01:28:07;;;;;;;21.30;19.60;;;10.30;99.90;;;;;;4923669;29;20032;-88
2022/12/28 01:30:33;;;;;;;23.30;19.52;;;10.30;99.90;;;;;;4922587;28;20040;-89
2022/12/28 01:32:59;;;;;;;21.42;19.33;;;10.40;99.90;;;;;;4915234;29;20055;-88
2022/12/28 01:35:25;;;;;;;20.38;18.73;;;10.40;99.90;;;;;;4902677;29;20040;-88
2022/12/28 01:37:51;;;;;;;21.27;19.60;;;10.40;99.90;;;;;;4914480;29;20470;-89
2022/12/28 01:40:18;;;;;;;21.83;19.67;;;10.40;99.90;;;;;;4900967;29;20044;-88
2022/12/28 01:42:44;;;;;;;20.60;18.83;;;10.40;99.90;;;;;;4908168;29;20055;-88
2022/12/28 01:45:18;;;;;;;21.33;19.42;;;10.40;99.90;;;;;;4933952;28;20031;-88
2022/12/28 01:47:44;;;;;;;20.58;19.08;;;10.40;99.90;;;;;;4904300;29;20040;-87
2022/12/28 01:50:12;;;;;;;21.08;19.10;;;10.30;99.90;;;;;;4889631;29;20118;-89
2022/12/28 01:52:41;;;;;;;21.15;19.35;;;10.30;99.90;;;;;;4937355;29;20051;-88
2022/12/28 01:55:26;;;;;;;21.75;19.83;;;10.30;99.90;;;;;;4919046;29;20032;-89
2022/12/28 01:57:54;;;;;;;20.80;19.35;;;10.30;99.90;;;;;;4935170;29;20493;-89
2022/12/28 02:00:20;;;;;;;22.20;19.92;;;10.30;99.90;;;;;;4920885;28;20500;-88
2022/12/28 02:02:54;;;;;;;21.17;19.58;;;10.30;99.90;;;;;;4920348;29;20488;-88
2022/12/28 02:05:21;;;;;;;20.50;18.77;;;10.30;99.90;;;;;;4914528;29;20028;-88
2022/12/28 02:07:56;;;;;;;20.98;19.25;;;10.30;99.90;;;;;;4908173;29;20137;-88
2022/12/28 02:10:22;;;;;;;21.55;19.30;;;10.40;99.90;;;;;;4901650;29;20418;-88
2022/12/28 02:12:48;;;;;;;20.13;18.40;;;10.40;99.90;;;;;;4918712;29;20044;-89
2022/12/28 02:15:15;;;;;;;21.15;19.23;;;10.30;99.90;;;;;;4920716;28;20039;-88
2022/12/28 02:17:41;;;;;;;20.67;18.88;;;10.30;99.90;;;;;;4914982;29;20044;-88
2022/12/28 02:20:07;;;;;;;20.17;18.52;;;10.30;99.90;;;;;;4921553;29;20393;-89
2022/12/28 02:23:02;;;;;;;21.30;19.42;;;10.20;99.90;;;;;;4936157;29;20047;-88
2022/12/28 02:25:40;;;;;;;18.85;17.10;;;10.20;99.90;;;;;;4932945;29;20370;-88
2022/12/28 02:28:46;;;;;;;17.92;16.63;;;10.20;99.90;;;;;;4919239;29;20054;-88
2022/12/28 02:31:34;;;;;;;18.95;17.13;;;10.20;99.90;;;;;;4918896;29;20163;-88
2022/12/28 02:34:11;;;;;;;18.98;17.75;;;10.20;99.90;;;;;;4927298;29;20047;-89
2022/12/28 02:36:40;;;;;;;20.38;18.15;;;10.10;99.90;;;;;;4949354;29;20047;-90
2022/12/28 02:39:17;;;;;;;20.95;18.55;;;10.20;99.90;;;;;;4925113;29;20027;-88
2022/12/28 02:41:43;;;;;;;20.30;18.55;;;10.10;99.90;;;;;;4918874;29;20048;-89
2022/12/28 02:44:09;;;;;;;19.50;17.73;;;10.10;99.90;;;;;;4936446;29;20383;-88
2022/12/28 02:52:25;;;;;;;19.35;17.20;;;10.10;99.90;;;;;;4949571;28;20509;-88
2022/12/28 02:58:10;;;;;;;18.75;17.13;;;10.10;99.90;;;;;;4929033;29;20043;-89
2022/12/28 03:01:16;;;;;;;17.60;16.25;;;10.10;99.90;;;;;;4927519;29;20036;-88
2022/12/28 03:03:54;;;;;;;18.55;16.88;;;10.00;99.90;;;;;;4927254;29;20036;-89
2022/12/28 03:09:52;;;;;;;19.35;17.40;;;10.10;99.90;;;;;;4932508;29;20031;-89
2022/12/28 03:12:30;;;;;;;19.73;18.13;;;10.10;99.90;;;;;;4917454;29;20502;-89
2022/12/28 03:15:12;;;;;;;18.50;16.13;;;10.10;99.90;;;;;;4884291;29;20044;-89
2022/12/28 03:31:29;;;;;;;18.92;17.10;;;10.20;99.90;;;;;;4926667;28;20043;-88
2022/12/28 03:34:07;;;;;;;18.88;17.05;;;10.20;99.90;;;;;;4921128;29;20462;-87
2022/12/28 03:36:36;;;;;;;19.38;18.00;;;10.20;99.90;;;;;;4926567;29;20497;-89
2022/12/28 03:39:09;;;;;;;19.40;17.77;;;10.20;99.90;;;;;;4925238;29;20043;-88
2022/12/28 03:41:37;;;;;;;19.20;17.58;;;10.20;99.90;;;;;;4908709;29;20442;-88
2022/12/28 03:44:09;;;;;;;20.23;18.25;;;10.20;99.90;;;;;;4918122;29;20501;-88
2022/12/28 03:46:41;;;;;;;24.52;17.95;;;10.20;99.90;;;;;;4901555;29;20032;-90
2022/12/28 03:49:08;;;;;;;19.83;18.10;;;10.10;99.90;;;;;;4921034;29;20055;-91
2022/12/28 03:51:34;;;;;;;18.83;17.00;;;10.10;99.90;;;;;;4908790;29;20397;-89
2022/12/28 03:54:00;;;;;;;20.00;18.42;;;10.10;99.90;;;;;;4924753;29;20043;-90
2022/12/28 03:56:26;;;;;;;20.48;18.33;;;10.10;99.90;;;;;;4915639;29;20028;-89
2022/12/28 03:58:53;;;;;;;20.40;18.48;;;10.20;99.90;;;;;;4924911;29;20031;-91
2022/12/28 04:01:19;;;;;;;19.98;18.08;;;10.20;99.90;;;;;;4918375;29;20040;-89
2022/12/28 04:03:45;;;;;;;19.42;17.85;;;10.20;99.90;;;;;;4921099;29;20039;-90
2022/12/28 04:06:14;;;;;;;20.42;18.33;;;10.20;99.90;;;;;;4936689;29;20027;-87
2022/12/28 04:08:41;;;;;;;22.02;17.77;;;10.20;99.90;;;;;;4934352;29;20031;-88
2022/12/28 04:11:08;;;;;;;19.65;17.52;;;10.20;99.90;;;;;;4933831;29;20032;-89
2022/12/28 04:13:34;;;;;;;19.65;17.88;;;10.20;99.90;;;;;;4915205;29;20048;-87
2022/12/28 04:16:02;;;;;;;18.45;16.70;;;10.20;99.90;;;;;;4915707;29;20410;-90
2022/12/28 04:18:30;;;;;;;17.77;16.30;;;10.10;99.90;;;;;;4915653;29;20040;-91
2022/12/28 04:20:56;;;;;;;19.98;17.55;;;10.10;99.90;;;;;;4944256;28;20048;-89
2022/12/28 04:23:22;;;;;;;18.98;17.23;;;10.10;99.90;;;;;;4909169;29;20047;-90
2022/12/28 04:25:58;;;;;;;18.60;16.95;;;10.10;99.90;;;;;;4951977;28;20031;-89
2022/12/28 04:28:24;;;;;;;20.35;17.95;;;10.10;99.90;;;;;;4927189;29;20493;-90
2022/12/28 04:30:50;;;;;;;20.00;18.10;;;10.10;99.90;;;;;;4915692;29;20040;-90
2022/12/28 04:33:16;;;;;;;19.67;17.90;;;10.20;99.90;;;;;;4927480;29;20062;-88
2022/12/28 04:35:42;;;;;;;19.60;18.05;;;10.10;99.90;;;;;;4932613;29;20463;-89
2022/12/28 04:38:08;;;;;;;19.80;17.83;;;10.10;99.90;;;;;;4925671;29;20031;-88
2022/12/28 04:40:34;;;;;;;19.13;17.50;;;10.10;99.90;;;;;;4934340;29;20035;-89
2022/12/28 04:43:01;;;;;;;20.20;18.20;;;10.10;99.90;;;;;;4930442;29;20040;-89
2022/12/28 04:45:27;;;;;;;19.20;17.35;;;10.00;99.90;;;;;;4899586;29;20052;-88
2022/12/28 04:47:56;;;;;;;19.50;17.60;;;10.10;99.90;;;;;;4899793;29;20051;-89
2022/12/28 04:50:22;;;;;;;20.35;18.42;;;10.00;99.90;;;;;;4932835;29;20042;-88
2022/12/28 04:52:49;;;;;;;18.90;17.30;;;10.00;99.90;;;;;;4933032;29;20075;-91
2022/12/28 04:55:15;;;;;;;19.70;17.83;;;10.00;99.90;;;;;;4934507;29;20043;-90
2022/12/28 04:57:44;;;;;;;22.23;18.48;;;10.10;99.90;;;;;;4938311;29;20035;-90
2022/12/28 05:00:11;;;;;;;19.15;17.50;;;10.10;99.90;;;;;;4955907;28;20028;-90
2022/12/28 05:02:37;;;;;;;20.10;18.27;;;10.10;99.90;;;;;;4957486;29;20104;-89
2022/12/28 05:05:04;;;;;;;19.42;17.67;;;10.10;99.90;;;;;;4945179;29;20040;-88
2022/12/28 05:07:30;;;;;;;19.40;17.88;;;10.10;99.90;;;;;;4912199;29;20040;-92
2022/12/28 05:09:56;;;;;;;20.60;18.63;;;10.10;99.90;;;;;;4931354;29;20052;-91
2022/12/28 05:12:22;;;;;;;20.00;18.20;;;10.20;99.90;;;;;;4932226;29;20032;-90
2022/12/28 05:14:48;;;;;;;19.90;18.10;;;10.20;99.90;;;;;;4918006;29;20059;-87
2022/12/28 05:17:14;;;;;;;19.95;18.15;;;10.20;99.90;;;;;;4932869;28;20079;-87
2022/12/28 05:19:40;;;;;;;20.10;18.42;;;10.20;99.90;;;;;;4948459;28;20074;-88
2022/12/28 05:22:10;;;;;;;20.00;18.15;;;10.10;99.90;;;;;;4938030;29;20048;-87
2022/12/28 05:24:39;;;;;;;20.23;18.10;;;10.20;99.90;;;;;;4938849;29;20039;-87
2022/12/28 05:27:05;;;;;;;21.10;18.55;;;10.20;99.90;;;;;;4935905;29;20370;-87
2022/12/28 05:29:31;;;;;;;19.65;17.92;;;10.10;99.90;;;;;;4940896;29;20469;-87
2022/12/28 05:31:57;;;;;;;19.13;17.85;;;10.10;99.90;;;;;;4957532;28;20048;-87
2022/12/28 05:34:23;;;;;;;20.05;18.02;;;10.20;99.90;;;;;;4940963;29;20409;-88
2022/12/28 05:36:49;;;;;;;20.00;17.98;;;10.10;99.90;;;;;;4937340;29;20035;-87
2022/12/28 05:39:16;;;;;;;19.15;17.30;;;10.10;99.90;;;;;;4922003;29;20047;-87
2022/12/28 05:41:42;;;;;;;20.25;18.15;;;10.00;99.90;;;;;;4938647;29;20023;-87
2022/12/28 05:44:08;;;;;;;19.45;17.70;;;10.00;99.90;;;;;;4923113;29;20024;-87
2022/12/28 05:46:34;;;;;;;18.67;16.75;;;10.00;99.90;;;;;;4924812;28;20043;-87
2022/12/28 05:49:00;;;;;;;20.08;18.42;;;10.00;99.90;;;;;;4926206;29;20028;-87
2022/12/28 05:51:28;;;;;;;19.05;17.40;;;10.00;99.90;;;;;;4942174;29;20043;-89
2022/12/28 05:53:55;;;;;;;19.13;17.58;;;10.10;99.90;;;;;;4943431;29;20052;-87
2022/12/28 05:56:23;;;;;;;19.77;18.27;;;10.00;99.90;;;;;;4927287;29;20032;-88
2022/12/28 05:58:56;;;;;;;20.25;18.58;;;10.00;99.90;;;;;;4927660;29;20031;-87
2022/12/28 06:01:24;;;;;;;19.05;17.50;;;10.00;99.90;;;;;;4926469;29;20095;-88
2022/12/28 06:03:58;;;;;;;18.70;17.38;;;9.90;99.90;;;;;;4926969;29;20035;-88
2022/12/28 06:06:25;;;;;;;20.35;18.30;;;9.90;99.90;;;;;;4911157;29;20051;-87
2022/12/28 06:08:51;;;;;;;19.20;17.80;;;9.90;99.90;;;;;;4926035;29;20031;-87
2022/12/28 06:11:18;;;;;;;20.08;17.90;;;10.00;99.90;;;;;;4944399;29;20055;-88
2022/12/28 06:13:44;;;;;;;19.05;17.30;;;10.00;99.90;;;;;;4942373;29;20036;-87
2022/12/28 06:16:18;;;;;;;19.15;17.52;;;10.00;99.90;;;;;;4934670;28;20043;-87
2022/12/28 06:18:44;;;;;;;20.25;18.23;;;10.00;99.90;;;;;;4917675;29;20359;-88
2022/12/28 06:21:16;;;;;;;20.40;18.60;;;10.10;99.90;;;;;;4941063;29;20051;-87
2022/12/28 06:23:42;;;;;;;19.25;17.42;;;10.10;99.90;;;;;;4935487;29;20032;-88
2022/12/28 06:26:10;;;;;;;18.73;17.40;;;10.10;99.90;;;;;;4943726;29;20436;-87
2022/12/28 06:28:36;;;;;;;19.67;17.70;;;10.10;99.90;;;;;;4955621;29;20035;-87
2022/12/28 06:31:14;;;;;;;21.92;19.25;;;10.10;99.90;;;;;;4954946;28;20358;-88
2022/12/28 06:33:40;;;;;;;24.27;18.95;;;10.10;99.90;;;;;;4955739;29;20046;-87
2022/12/28 06:36:16;;;;;;;21.40;19.83;;;10.10;99.90;;;;;;4942515;29;20031;-87
2022/12/28 06:38:43;;;;;;;20.95;19.05;;;10.00;99.90;;;;;;4922983;29;20062;-87
2022/12/28 06:41:10;;;;;;;20.38;18.55;;;10.10;99.90;;;;;;4901954;29;20044;-88
2022/12/28 06:43:37;;;;;;;21.15;19.52;;;10.10;99.90;;;;;;4919544;28;20048;-88
2022/12/28 06:46:03;;;;;;;21.75;19.95;;;10.10;99.90;;;;;;4916928;28;20036;-89
2022/12/28 06:48:29;;;;;;;21.85;20.08;;;10.10;99.90;;;;;;4933564;29;20040;-87
2022/12/28 06:51:00;;;;;;;21.00;19.05;;;10.10;99.90;;;;;;4932976;29;20040;-88
2022/12/28 06:53:30;;;;;;;22.43;17.73;;;10.10;99.90;;;;;;4935173;29;20044;-88
2022/12/28 06:55:58;;;;;;;22.13;20.33;;;10.20;99.90;;;;;;4936248;29;20279;-88
2022/12/28 06:58:24;;;;;;;20.05;18.17;;;10.20;99.90;;;;;;4933231;29;20032;-88
2022/12/28 07:00:51;;;;;;;21.40;19.38;;;10.20;99.90;;;;;;4934964;28;20046;-89
2022/12/28 07:03:17;;;;;;;22.20;20.45;;;10.20;99.90;;;;;;4936654;29;20035;-88
2022/12/28 07:05:43;;;;;;;22.58;20.60;;;10.10;99.90;;;;;;4929460;29;20035;-91
2022/12/28 07:08:09;;;;;;;21.30;19.42;;;10.10;99.90;;;;;;4950945;29;20031;-89
2022/12/28 07:10:36;;;;;;;20.92;19.30;;;10.20;99.90;;;;;;4946291;28;20051;-90
2022/12/28 07:13:03;;;;;;;21.45;19.42;;;10.20;99.90;;;;;;4939862;29;20038;-89
2022/12/28 07:15:29;;;;;;;20.80;19.20;;;10.20;99.90;;;;;;4937534;28;20036;-87
2022/12/28 07:17:56;;;;;;;21.58;19.88;;;10.20;99.90;;;;;;4936684;29;20030;-90
2022/12/28 07:20:22;;;;;;;22.23;20.23;;;10.20;99.90;;;;;;4938061;29;20402;-91
2022/12/28 07:22:48;;;;;;;21.75;19.63;;;10.20;99.90;;;;;;4935561;29;20043;-91
2022/12/28 07:25:14;;;;;;;22.17;20.05;;;10.20;99.90;;;;;;4936488;29;20508;-90
2022/12/28 07:27:40;;;;;;;22.40;20.48;;;10.20;99.90;;;;;;4955761;29;20080;-91
2022/12/28 07:30:07;;;;;;;21.35;19.65;;;10.20;99.90;;;;;;4953680;28;20054;-92
2022/12/28 07:32:36;;;;;;;21.88;19.98;;;10.20;99.90;;;;;;4917213;29;20028;-89
2022/12/28 07:35:03;;;;;;;20.42;19.02;;;10.20;99.90;;;;;;4927887;29;20036;-89
2022/12/28 07:37:29;;;;;;;21.55;19.67;;;10.20;99.90;;;;;;4917383;29;20044;-92
2022/12/28 07:39:55;;;;;;;30.38;18.70;;;10.20;99.90;;;;;;4919438;29;20055;-90
2022/12/28 07:42:21;;;;;;;20.77;19.13;;;10.20;99.90;;;;;;4927338;29;20032;-95
2022/12/28 07:44:48;;;;;;;20.48;18.95;;;10.10;99.90;;;;;;4934250;29;20046;-93
2022/12/28 07:47:14;;;;;;;21.48;19.88;;;10.10;99.90;;;;;;4948486;28;20477;-88
2022/12/28 07:49:40;;;;;;;20.60;19.02;;;10.10;99.90;;;;;;4925308;29;20043;-89
2022/12/28 07:52:06;;;;;;;21.05;19.25;;;10.10;99.90;;;;;;4934380;29;20038;-87
2022/12/28 07:54:32;;;;;;;21.30;19.58;;;10.10;99.90;;;;;;4923460;29;20055;-87
2022/12/28 07:56:58;;;;;;;20.92;19.17;;;10.10;99.90;;;;;;4916678;29;20051;-92
2022/12/28 07:59:24;;;;;;;21.08;19.33;;;10.10;99.90;;;;;;4926757;29;20042;-91
2022/12/28 08:01:51;;;;;;;21.90;20.20;;;10.10;99.90;;;;;;4917388;28;20071;-86
2022/12/28 08:04:17;;;;;;;22.42;20.45;;;10.10;99.90;;;;;;4915338;29;20039;-87
2022/12/28 08:06:44;;;;;;;21.40;19.70;;;10.20;99.90;;;;;;4930729;29;20377;-87
2022/12/28 08:09:11;;;;;;;22.67;20.77;;;10.30;99.90;;;;;;4950489;29;20036;-87
2022/12/28 08:11:42;;;;;;;23.23;21.25;;;10.30;99.90;;;;;;4933898;29;20481;-87
2022/12/28 08:14:08;;;;;;;22.80;21.00;;;10.30;99.90;;;;;;4934537;29;20046;-87
2022/12/28 08:16:36;;;;;;;22.35;20.75;;;10.40;99.90;;;;;;4934289;29;20043;-89
2022/12/28 08:19:02;;;;;;;21.70;19.63;;;10.40;99.90;;;;;;4934903;29;20365;-87
2022/12/28 08:21:36;;;;;;;24.27;22.48;;;10.40;99.90;;;;;;4934899;29;20082;-88
2022/12/28 08:24:02;;;;;;;20.92;19.38;;;10.40;99.90;;;;;;4914571;29;20044;-86
2022/12/28 08:26:33;;;;;;;19.80;17.83;;;10.40;99.90;;;;;;4912315;29;20385;-85
2022/12/28 08:29:01;;;;;;;20.60;18.60;;;10.40;99.90;;;;;;4902933;29;20031;-87
2022/12/28 08:31:29;;;;;;;21.48;19.58;;;10.30;99.90;;;;;;4918245;28;20035;-86
2022/12/28 08:33:57;;;;;;;21.02;19.52;;;10.30;99.90;;;;;;4917525;29;20054;-87
2022/12/28 08:36:23;;;;;;;22.13;20.08;;;10.30;99.90;;;;;;4901531;29;20498;-88
2022/12/28 08:38:49;;;;;;;21.42;19.67;;;10.30;99.90;;;;;;4884281;29;20043;-90
2022/12/28 08:41:17;;;;;;;22.58;20.75;;;10.30;99.90;;;;;;4901129;29;20047;-88
2022/12/28 08:43:44;;;;;;;21.65;19.88;;;10.30;99.90;;;;;;4899896;29;20051;-90
2022/12/28 08:46:13;;;;;;;20.20;18.25;;;10.30;99.90;;;;;;4933865;28;20032;-89
2022/12/28 08:48:39;;;;;;;19.58;17.73;;;10.40;99.90;;;;;;4931345;29;20052;-89
2022/12/28 08:51:10;;;;;;;19.95;18.45;;;10.40;99.90;;;;;;4915902;29;20048;-88
2022/12/28 08:53:36;;;;;;;19.27;17.67;;;10.40;99.90;;;;;;4900254;29;20048;-88
2022/12/28 08:56:13;;;;;;;19.85;18.13;;;10.50;99.90;;;;;;4913637;29;20039;-90
2022/12/28 08:58:40;;;;;;;19.70;17.88;;;10.50;99.90;;;;;;4904766;29;20052;-91
2022/12/28 09:01:12;;;;;;;20.00;17.92;;;10.50;99.90;;;;;;4887402;29;20032;-93
2022/12/28 09:03:40;;;;;;;19.15;17.48;;;10.60;99.90;;;;;;4905130;29;20149;-87
2022/12/28 09:06:08;;;;;;;19.67;18.10;;;10.60;99.90;;;;;;4902008;29;20429;-85
2022/12/28 09:08:34;;;;;;;19.98;18.15;;;10.60;99.90;;;;;;4904814;29;20047;-93
2022/12/28 09:11:01;;;;;;;20.17;18.58;;;10.60;99.90;;;;;;4934185;29;20032;-90
2022/12/28 09:13:28;;;;;;;21.95;20.10;;;10.60;99.90;;;;;;4934174;29;20058;-89
2022/12/28 09:16:04;;;;;;;21.85;19.73;;;10.60;99.90;;;;;;4935356;28;20042;-89
2022/12/28 09:18:31;;;;;;;20.80;18.98;;;10.60;99.90;;;;;;4933341;29;20047;-89
2022/12/28 09:21:02;;;;;;;21.27;19.38;;;10.60;99.90;;;;;;4922716;29;20047;-89
2022/12/28 09:23:28;;;;;;;20.92;19.50;;;10.60;99.90;;;;;;4930989;29;20037;-89
2022/12/28 09:25:54;;;;;;;21.63;19.73;;;10.70;99.90;;;;;;4925265;29;20027;-91
2022/12/28 09:28:20;;;;;;;21.35;19.45;;;10.70;99.90;;;;;;4953301;29;20031;-90
2022/12/28 09:30:46;;;;;;;19.73;18.25;;;10.80;99.90;;;;;;4952688;28;20469;-90
2022/12/28 09:35:58;;;;;;;20.88;19.38;;;10.80;99.90;;;;;;4934863;29;20066;-90
2022/12/28 09:38:24;;;;;;;20.42;19.13;;;10.90;99.90;;;;;;4926437;29;20036;-89
2022/12/28 09:40:50;;;;;;;21.38;19.95;;;10.90;99.90;;;;;;4922961;29;20066;-89
2022/12/28 09:43:17;;;;;;;23.02;21.15;;;11.00;99.90;;;;;;4898877;29;20508;-88
2022/12/28 09:45:43;;;;;;;24.17;22.10;;;11.00;99.90;;;;;;4914253;29;20044;-89
2022/12/28 09:48:12;;;;;;;23.35;21.75;;;11.00;99.90;;;;;;4914123;29;20032;-90
2022/12/28 09:50:38;;;;;;;23.70;22.10;;;11.00;99.90;;;;;;4902154;29;20048;-89
2022/12/28 09:53:04;;;;;;;24.83;23.08;;;11.10;99.90;;;;;;4944640;29;20419;-90
2022/12/28 09:55:34;;;;;;;24.17;22.58;;;11.10;99.90;;;;;;4926986;29;20301;-89
2022/12/28 09:58:00;;;;;;;23.60;21.80;;;11.20;99.90;;;;;;4933389;29;20046;-89
2022/12/28 10:00:46;;;;;;;20.83;19.45;;;11.20;99.90;;;;;;4927161;29;20032;-89
2022/12/28 10:03:41;;;;;;;19.55;18.02;;;11.30;99.90;;;;;;4926991;29;20028;-89
2022/12/28 10:06:11;;;;;;;17.05;15.40;;;11.40;99.90;;;;;;4924751;29;20050;-91
2022/12/28 10:08:49;;;;;;;18.65;16.75;;;11.40;99.90;;;;;;4958213;29;20032;-90
2022/12/28 10:11:26;;;;;;;17.40;16.15;;;11.50;99.90;;;;;;4917846;29;20500;-88
2022/12/28 10:14:00;;;;;;;20.05;18.35;;;11.60;99.90;;;;;;4929327;29;20036;-92
2022/12/28 10:16:31;;;;;;;20.95;19.33;;;11.70;99.90;;;;;;4906205;29;20033;-89
2022/12/28 10:18:57;;;;;;;20.35;18.95;;;11.70;99.90;;;;;;4925723;29;20027;-91
2022/12/28 10:21:24;;;;;;;25.38;23.02;;;11.80;99.90;;;;;;4932246;29;20047;-93
2022/12/28 10:23:52;;;;;;;22.67;20.88;;;11.80;99.90;;;;;;4943683;29;20032;-94
2022/12/28 10:26:19;;;;;;;19.77;18.42;;;11.80;99.90;;;;;;4945406;29;20032;-93
2022/12/28 10:28:52;;;;;;;18.38;17.27;;;11.90;99.90;;;;;;4944410;29;20031;-89
2022/12/28 10:31:32;;;;;;;19.08;17.73;;;11.90;99.90;;;;;;4936808;29;20042;-88
2022/12/28 10:33:58;;;;;;;20.50;18.35;;;11.90;99.90;;;;;;4937194;29;20401;-91
2022/12/28 10:36:24;;;;;;;19.02;17.13;;;12.00;99.90;;;;;;4945482;29;20028;-91
2022/12/28 10:38:52;;;;;;;17.55;16.05;;;12.00;99.90;;;;;;4960608;28;20050;-91
2022/12/28 10:41:18;;;;;;;18.25;16.83;;;12.00;99.90;;;;;;4927601;29;20040;-89
2022/12/28 10:43:47;;;;;;;17.58;16.30;;;12.00;99.90;;;;;;4919128;29;20493;-88
2022/12/28 10:46:18;;;;;;;18.05;16.45;;;12.00;99.90;;;;;;4934482;29;20046;-90
2022/12/28 10:48:47;;;;;;;17.88;16.63;;;12.10;99.90;;;;;;4927882;29;20028;-90
2022/12/28 10:51:20;;;;;;;18.60;17.23;;;12.10;99.90;;;;;;4935931;29;20051;-93
2022/12/28 10:53:54;;;;;;;19.25;17.70;;;12.10;99.90;;;;;;4933378;29;20039;-92
2022/12/28 10:56:24;;;;;;;19.08;17.58;;;12.10;99.90;;;;;;4935651;29;20027;-90
2022/12/28 10:59:14;;;;;;;18.25;16.35;;;12.10;99.90;;;;;;4927675;29;20047;-87
2022/12/28 11:01:41;;;;;;;19.83;18.23;;;12.10;99.90;;;;;;5063071;23;20059;-94
2022/12/28 11:04:15;;;;;;;19.45;17.60;;;12.10;99.90;;;;;;4953941;28;20054;-94
2022/12/28 11:06:59;;;;;;;17.88;16.77;;;12.10;99.90;;;;;;4993567;23;20059;-92
2022/12/28 11:09:29;;;;;;;18.60;17.30;;;12.20;99.90;;;;;;4927800;29;20043;-93
2022/12/28 11:12:14;;;;;;;17.80;16.60;;;12.20;99.90;;;;;;4928968;29;20044;-92
2022/12/28 11:14:40;;;;;;;17.42;15.90;;;12.20;99.90;;;;;;4934562;29;20055;-93
2022/12/28 11:17:14;;;;;;;16.80;15.52;;;12.20;99.90;;;;;;4908468;29;20386;-93
2022/12/28 11:19:40;;;;;;;18.98;17.25;;;12.20;99.90;;;;;;4960926;28;20027;-93
2022/12/28 11:22:10;;;;;;;17.10;15.73;;;12.20;99.90;;;;;;4927754;29;20031;-93
2022/12/28 11:24:36;;;;;;;22.08;20.23;;;12.30;99.90;;;;;;4923681;29;20036;-92
2022/12/28 11:27:02;;;;;;;17.02;15.48;;;12.30;99.90;;;;;;4944449;28;20080;-94
2022/12/28 11:29:28;;;;;;;16.83;15.63;;;12.30;99.90;;;;;;4955088;29;20039;-94
2022/12/28 11:32:01;;;;;;;19.65;18.20;;;12.40;99.90;;;;;;4924880;29;20054;-89
2022/12/28 11:34:27;;;;;;;20.40;18.67;;;12.30;99.90;;;;;;4942217;29;20408;-90
2022/12/28 11:36:53;;;;;;;23.55;21.77;;;12.30;99.90;;;;;;4931723;29;20027;-84
2022/12/28 11:39:25;;;;;;;22.38;20.75;;;12.40;99.90;;;;;;4905563;29;20408;-90
2022/12/28 11:41:53;;;;;;;18.92;17.35;;;12.40;99.90;;;;;;4948504;29;20035;-94
2022/12/28 11:44:39;;;;;;;19.40;17.85;;;12.40;99.90;;;;;;4930335;29;20050;-92
2022/12/28 11:47:15;;;;;;;18.02;16.63;;;12.40;99.90;;;;;;4938305;28;20032;-93
2022/12/28 11:49:42;;;;;;;18.40;16.95;;;12.50;99.90;;;;;;4933826;29;20035;-91
2022/12/28 11:52:22;;;;;;;20.27;18.58;;;12.50;99.90;;;;;;4939577;29;20396;-91
2022/12/28 11:54:56;;;;;;;16.73;15.48;;;12.50;99.90;;;;;;4958936;29;20066;-92
2022/12/28 11:57:42;;;;;;;18.90;17.50;;;12.50;99.90;;;;;;4946674;29;20035;-94
2022/12/28 12:00:20;;;;;;;16.63;15.40;;;12.60;99.90;;;;;;4930862;29;20405;-91
2022/12/28 12:02:50;;;;;;;17.67;16.02;;;12.60;99.90;;;;;;4930454;29;20031;-91
2022/12/28 12:05:35;;;;;;;19.92;18.23;;;12.60;99.90;;;;;;4918797;28;20043;-93
2022/12/28 12:08:08;;;;;;;18.63;16.95;;;12.60;99.90;;;;;;4966968;28;20039;-93
2022/12/28 12:10:35;;;;;;;16.95;15.60;;;12.60;99.90;;;;;;4976284;28;20058;-90
2022/12/28 12:13:12;;;;;;;20.15;18.45;;;12.60;99.90;;;;;;4964952;28;20031;-91
2022/12/28 12:15:40;;;;;;;16.10;14.75;;;12.60;99.90;;;;;;4954825;28;20485;-93
2022/12/28 12:18:12;;;;;;;19.05;17.63;;;12.60;99.90;;;;;;4963512;28;20054;-92
2022/12/28 12:20:49;;;;;;;19.52;17.80;;;12.70;99.90;;;;;;4970121;28;20492;-92
2022/12/28 12:23:45;;;;;;;20.02;18.67;;;12.70;99.90;;;;;;4970147;28;20042;-91
2022/12/28 12:26:32;;;;;;;17.42;16.38;;;12.70;99.90;;;;;;4968058;28;20030;-89
2022/12/28 12:29:23;;;;;;;15.20;14.05;;;12.70;99.90;;;;;;4955220;28;20039;-91
2022/12/28 12:31:57;;;;;;;22.95;21.15;;;12.70;99.90;;;;;;4921946;28;20036;-90
2022/12/28 12:34:40;;;;;;;19.00;17.63;;;12.70;99.90;;;;;;4898033;29;20060;-90
2022/12/28 12:37:27;;;;;;;19.25;17.85;;;12.70;99.90;;;;;;4900238;29;20043;-91
2022/12/28 12:40:00;;;;;;;19.23;17.75;;;12.70;99.90;;;;;;4898747;29;20043;-91
2022/12/28 12:42:49;;;;;;;20.27;18.77;;;12.60;99.90;;;;;;4898152;29;20084;-91
2022/12/28 12:45:24;;;;;;;19.85;18.25;;;12.60;99.90;;;;;;4905404;29;20055;-91
2022/12/28 12:48:11;;;;;;;20.08;18.27;;;12.60;99.90;;;;;;4931830;29;20043;-91
2022/12/28 12:50:56;;;;;;;20.38;18.92;;;12.60;99.90;;;;;;4932878;29;20144;-90
2022/12/28 12:53:34;;;;;;;18.98;17.48;;;12.60;99.90;;;;;;4918063;29;20079;-90
2022/12/28 12:56:19;;;;;;;19.83;18.30;;;12.60;99.90;;;;;;4933205;29;20147;-91
2022/12/28 12:58:51;;;;;;;17.80;16.08;;;12.60;99.90;;;;;;4918979;29;20035;-91
2022/12/28 13:01:32;;;;;;;20.95;19.45;;;12.60;99.90;;;;;;4898026;29;20417;-91
2022/12/28 13:04:06;;;;;;;20.70;19.17;;;12.60;99.90;;;;;;4931957;29;20042;-92
2022/12/28 13:06:33;;;;;;;18.20;16.83;;;12.70;99.90;;;;;;4896081;29;20520;-91
2022/12/28 13:09:01;;;;;;;21.45;20.05;;;12.60;99.90;;;;;;4937906;28;20043;-90
2022/12/28 13:11:28;;;;;;;18.48;17.13;;;12.60;99.90;;;;;;4937248;28;20045;-91